Terminal Aerodrome Forecast
Issued by NWS

Home | Current Version | Previous Version | Graphics & Text | Print | Product List | Glossary On
Versions: 1 2 3 4 5 6 7 8 9 10 11 12 13 14 15 16
000
FTUS43 KICT 240739 AAB
TAFCNU
TAF AMD
KCNU 240739Z 2408/2506 11011KT P6SM VCTS SCT040 OVC070CB
      TEMPO 2408/2410 VRB15G25KT 5SM TSRA BKN040CB
     FM241200 15014KT P6SM BKN035
     FM241500 17017G22KT P6SM BKN025=

USA.gov is the U.S. government's official web portal to all federal, state and local government web resources and services.